Terminal Aerodrome Forecast
Issued by NWS Cleveland, OH

Home | Current Version | Previous Version | Graphics & Text | Print | Product List | Glossary Off
Versions: 1 2 3 4 5 6 7 8 9 10 11 12 13 14 15 16 17 18 19 20

000
FTUS41 KCLE 152052 AAA
TAFTOL
TAF AMD
KTOL 152052Z 1521/1618 25016G22KT 6SM -SHSN BKN030
     FM152200 25015G25KT P6SM OVC035
     FM160100 25008KT P6SM SCT025 OVC035=

USA.gov is the U.S. government's official web portal to all federal, state and local government web resources and services.